SWA1733 KDCA-KLAS
Flight info
| Callsign | SWA1733 |
|---|---|
| Flight time | N/A |
| Altitude | 34000 |
| Route | HORTO4 BUFFR Q178 DJB CPONE JOT J60 IOW/N0468F360 J60 HVE GGAPP CHOWW4 |
| Aircraft | B38M/M-SDE1FGHILORVWXY/HB1 |
Departure
| Time | 2026-04-30 20:05 |
|---|---|
| Airport | Ronald Reagan Washington National Airport (KDCA) |
Arrival
| Time | N/A |
|---|---|
| Airport | Harry Reid International Airport (KLAS) |
| Time | Latitude | Longitude | Altitude | Speed | Heading |
|---|---|---|---|---|---|
| 2026-04-30 19:47 | 38.84624 | -77.04292 | 27 ft | 0 kts | 29° |
| 2026-04-30 19:56 | 38.84608 | -77.04304 | 27 ft | 4 kts | 32° |
| 2026-04-30 19:56 | 38.84590 | -77.04326 | 27 ft | 4 kts | 64° |
| 2026-04-30 19:56 | 38.84585 | -77.04342 | 27 ft | 4 kts | 86° |
| 2026-04-30 19:56 | 38.84589 | -77.04366 | 27 ft | 1 kts | 122° |
| 2026-04-30 19:57 | 38.84592 | -77.04371 | 27 ft | 0 kts | 122° |
| 2026-04-30 20:00 | 38.84587 | -77.04362 | 27 ft | 4 kts | 121° |
| 2026-04-30 20:00 | 38.84569 | -77.04263 | 27 ft | 18 kts | 96° |
| 2026-04-30 20:00 | 38.84610 | -77.04073 | 27 ft | 21 kts | 64° |
| 2026-04-30 20:00 | 38.84654 | -77.04027 | 27 ft | 7 kts | 26° |
| 2026-04-30 20:01 | 38.84657 | -77.03871 | 27 ft | 25 kts | 174° |
| 2026-04-30 20:01 | 38.84475 | -77.03848 | 27 ft | 26 kts | 174° |
| 2026-04-30 20:01 | 38.84293 | -77.03828 | 27 ft | 27 kts | 176° |
| 2026-04-30 20:02 | 38.84226 | -77.03792 | 27 ft | 0 kts | 122° |
| 2026-04-30 20:02 | 38.84226 | -77.03791 | 27 ft | 1 kts | 122° |
| 2026-04-30 20:03 | 38.84220 | -77.03780 | 27 ft | 2 kts | 122° |
| 2026-04-30 20:03 | 38.84202 | -77.03741 | 26 ft | 10 kts | 115° |
| 2026-04-30 20:03 | 38.84227 | -77.03680 | 27 ft | 6 kts | 345° |
| 2026-04-30 20:03 | 38.84311 | -77.03691 | 26 ft | 32 kts | 355° |
| 2026-04-30 20:04 | 38.84796 | -77.03739 | 26 ft | 105 kts | 355° |
| 2026-04-30 20:04 | 38.85735 | -77.03824 | 34 ft | 160 kts | 358° |
| 2026-04-30 20:04 | 38.86863 | -77.03894 | 552 ft | 168 kts | 346° |
| 2026-04-30 20:05 | 38.88652 | -77.05903 | 1851 ft | 177 kts | 317° |
| 2026-04-30 20:05 | 38.89621 | -77.06920 | 2315 ft | 187 kts | 310° |
| 2026-04-30 20:05 | 38.91213 | -77.10112 | 3387 ft | 224 kts | 307° |
| 2026-04-30 20:06 | 38.92433 | -77.11423 | 4150 ft | 239 kts | 328° |
| 2026-04-30 20:06 | 38.93915 | -77.12540 | 4837 ft | 253 kts | 326° |
| 2026-04-30 20:06 | 38.95411 | -77.13721 | 5838 ft | 252 kts | 321° |
| 2026-04-30 20:06 | 38.96529 | -77.15426 | 6713 ft | 252 kts | 294° |
| 2026-04-30 20:07 | 38.97037 | -77.17600 | 7529 ft | 257 kts | 283° |
| 2026-04-30 20:07 | 38.97431 | -77.19854 | 8403 ft | 260 kts | 282° |
| 2026-04-30 20:07 | 38.98190 | -77.24449 | 10125 ft | 265 kts | 281° |
| 2026-04-30 20:08 | 38.98571 | -77.26834 | 10630 ft | 281 kts | 281° |
| 2026-04-30 20:08 | 38.98973 | -77.29384 | 10922 ft | 301 kts | 281° |
| 2026-04-30 20:08 | 38.99739 | -77.31937 | 11205 ft | 322 kts | 301° |
| 2026-04-30 20:08 | 39.01302 | -77.34112 | 11629 ft | 339 kts | 314° |
| 2026-04-30 20:09 | 39.03073 | -77.36186 | 12121 ft | 349 kts | 313° |
| 2026-04-30 20:09 | 39.04868 | -77.38292 | 12866 ft | 350 kts | 313° |
| 2026-04-30 20:09 | 39.08515 | -77.42549 | 14164 ft | 357 kts | 313° |
| 2026-04-30 20:10 | 39.12478 | -77.46497 | 15374 ft | 372 kts | 330° |
| 2026-04-30 20:10 | 39.14971 | -77.47568 | 16013 ft | 379 kts | 336° |
| 2026-04-30 20:10 | 39.17505 | -77.48592 | 16533 ft | 384 kts | 336° |
| 2026-04-30 20:11 | 39.22660 | -77.50639 | 17615 ft | 391 kts | 335° |
| 2026-04-30 20:11 | 39.25276 | -77.51670 | 18159 ft | 394 kts | 335° |
| 2026-04-30 20:11 | 39.27910 | -77.52708 | 18606 ft | 397 kts | 335° |
| 2026-04-30 20:12 | 39.32328 | -77.54452 | 19385 ft | 401 kts | 335° |
| 2026-04-30 20:12 | 39.35007 | -77.55509 | 19842 ft | 404 kts | 335° |
| 2026-04-30 20:12 | 39.37703 | -77.56575 | 20354 ft | 407 kts | 335° |
| 2026-04-30 20:13 | 39.40394 | -77.57638 | 20767 ft | 410 kts | 335° |
| 2026-04-30 20:13 | 39.43022 | -77.58971 | 21176 ft | 401 kts | 322° |
| 2026-04-30 20:13 | 39.45167 | -77.61162 | 21587 ft | 388 kts | 305° |
| 2026-04-30 20:13 | 39.46684 | -77.63996 | 21965 ft | 381 kts | 292° |
| 2026-04-30 20:14 | 39.47852 | -77.67093 | 22322 ft | 384 kts | 290° |
| 2026-04-30 20:14 | 39.48939 | -77.70251 | 22767 ft | 385 kts | 289° |
| 2026-04-30 20:14 | 39.49973 | -77.73456 | 23171 ft | 387 kts | 288° |
| 2026-04-30 20:14 | 39.50985 | -77.76700 | 23567 ft | 389 kts | 287° |
| 2026-04-30 20:15 | 39.51984 | -77.79960 | 23909 ft | 391 kts | 287° |
| 2026-04-30 20:15 | 39.52978 | -77.83246 | 24267 ft | 392 kts | 287° |
| 2026-04-30 20:15 | 39.53982 | -77.86546 | 24604 ft | 394 kts | 288° |
| 2026-04-30 20:15 | 39.55003 | -77.89851 | 24937 ft | 396 kts | 287° |
| 2026-04-30 20:16 | 39.56012 | -77.93130 | 25266 ft | 398 kts | 288° |
| 2026-04-30 20:16 | 39.57038 | -77.96471 | 25606 ft | 400 kts | 288° |
| 2026-04-30 20:16 | 39.58067 | -77.99830 | 25942 ft | 401 kts | 288° |
| 2026-04-30 20:16 | 39.59099 | -78.03198 | 26258 ft | 403 kts | 288° |
| 2026-04-30 20:17 | 39.60137 | -78.06594 | 26572 ft | 405 kts | 288° |
| 2026-04-30 20:17 | 39.61174 | -78.09989 | 26862 ft | 406 kts | 287° |
| 2026-04-30 20:17 | 39.62217 | -78.13407 | 27137 ft | 408 kts | 288° |
| 2026-04-30 20:17 | 39.63265 | -78.16847 | 27446 ft | 410 kts | 288° |
| 2026-04-30 20:18 | 39.64311 | -78.20287 | 27732 ft | 411 kts | 288° |
| 2026-04-30 20:18 | 39.65364 | -78.23753 | 28060 ft | 412 kts | 288° |
| 2026-04-30 20:18 | 39.66412 | -78.27207 | 28543 ft | 410 kts | 288° |
| 2026-04-30 20:18 | 39.67453 | -78.30641 | 28996 ft | 408 kts | 288° |
| 2026-04-30 20:19 | 39.68491 | -78.34070 | 29410 ft | 407 kts | 288° |
| 2026-04-30 20:19 | 39.69509 | -78.37438 | 29838 ft | 405 kts | 288° |
| 2026-04-30 20:19 | 39.70535 | -78.40834 | 30211 ft | 404 kts | 287° |
| 2026-04-30 20:19 | 39.71558 | -78.44229 | 30523 ft | 404 kts | 288° |
| 2026-04-30 20:20 | 39.72581 | -78.47625 | 30794 ft | 404 kts | 288° |
| 2026-04-30 20:20 | 39.73604 | -78.51028 | 31075 ft | 404 kts | 288° |
| 2026-04-30 20:20 | 39.74624 | -78.54425 | 31347 ft | 404 kts | 288° |
| 2026-04-30 20:20 | 39.75644 | -78.57823 | 31610 ft | 403 kts | 287° |
| 2026-04-30 20:21 | 39.76661 | -78.61217 | 31878 ft | 403 kts | 288° |
| 2026-04-30 20:21 | 39.77677 | -78.64613 | 32146 ft | 403 kts | 288° |
| 2026-04-30 20:21 | 39.78695 | -78.68018 | 32380 ft | 404 kts | 288° |
| 2026-04-30 20:21 | 39.79710 | -78.71415 | 32673 ft | 403 kts | 288° |
| 2026-04-30 20:22 | 39.80723 | -78.74816 | 32961 ft | 403 kts | 288° |
| 2026-04-30 20:22 | 39.81735 | -78.78213 | 33280 ft | 402 kts | 288° |
| 2026-04-30 20:22 | 39.82744 | -78.81608 | 33544 ft | 402 kts | 288° |
| 2026-04-30 20:22 | 39.83756 | -78.85014 | 33818 ft | 402 kts | 288° |
| 2026-04-30 20:23 | 39.84763 | -78.88409 | 33969 ft | 403 kts | 288° |
| 2026-04-30 20:23 | 39.86761 | -78.95162 | 33967 ft | 401 kts | 288° |
| 2026-04-30 20:24 | 39.88767 | -79.01953 | 33967 ft | 401 kts | 288° |
| 2026-04-30 20:24 | 39.90768 | -79.08749 | 33955 ft | 403 kts | 288° |
| 2026-04-30 20:25 | 39.93785 | -79.19025 | 33977 ft | 405 kts | 288° |
| 2026-04-30 20:26 | 39.96781 | -79.29266 | 33997 ft | 405 kts | 288° |
| 2026-04-30 20:26 | 39.99785 | -79.39568 | 34015 ft | 406 kts | 288° |
| 2026-04-30 20:27 | 40.02681 | -79.45954 | 34004 ft | 413 kts | 299° |
| 2026-04-30 20:27 | 40.05853 | -79.52198 | 34030 ft | 413 kts | 299° |
| 2026-04-30 20:28 | 40.12227 | -79.64646 | 34006 ft | 413 kts | 299° |
| 2026-04-30 20:30 | 40.20202 | -79.80278 | 34015 ft | 413 kts | 299° |
| 2026-04-30 20:31 | 40.29652 | -79.98901 | 34000 ft | 410 kts | 299° |
| 2026-04-30 20:32 | 40.37510 | -80.14470 | 34008 ft | 409 kts | 299° |
| 2026-04-30 20:33 | 40.42185 | -80.23772 | 34000 ft | 407 kts | 299° |
| 2026-04-30 20:34 | 40.46857 | -80.33095 | 34008 ft | 407 kts | 299° |
| 2026-04-30 20:35 | 40.51524 | -80.42435 | 34044 ft | 407 kts | 299° |
| 2026-04-30 20:35 | 40.56198 | -80.51819 | 34030 ft | 409 kts | 299° |
| 2026-04-30 20:36 | 40.59311 | -80.58083 | 34028 ft | 408 kts | 299° |
| 2026-04-30 20:37 | 40.63942 | -80.67428 | 34038 ft | 408 kts | 299° |
| 2026-04-30 20:37 | 40.67060 | -80.73734 | 34036 ft | 408 kts | 299° |
| 2026-04-30 20:38 | 40.70138 | -80.79974 | 34031 ft | 408 kts | 299° |
| 2026-04-30 20:38 | 40.73229 | -80.86252 | 34025 ft | 408 kts | 299° |
| 2026-04-30 20:39 | 40.77850 | -80.95662 | 34067 ft | 407 kts | 299° |
| 2026-04-30 20:40 | 40.82456 | -81.05072 | 34026 ft | 409 kts | 299° |
| 2026-04-30 20:40 | 40.85539 | -81.11384 | 34026 ft | 409 kts | 299° |
| 2026-04-30 20:41 | 40.90159 | -81.20869 | 34022 ft | 409 kts | 299° |
| 2026-04-30 20:41 | 40.93229 | -81.27188 | 34018 ft | 409 kts | 299° |
| 2026-04-30 20:42 | 40.96278 | -81.33475 | 34018 ft | 406 kts | 299° |
| 2026-04-30 20:43 | 41.00847 | -81.42925 | 34022 ft | 406 kts | 299° |
| 2026-04-30 20:43 | 41.03892 | -81.49238 | 34049 ft | 406 kts | 299° |
| 2026-04-30 20:44 | 41.08466 | -81.58742 | 34032 ft | 408 kts | 298° |
| 2026-04-30 20:45 | 41.14533 | -81.71401 | 34034 ft | 407 kts | 299° |
| 2026-04-30 20:45 | 41.17564 | -81.77743 | 34033 ft | 407 kts | 299° |
| 2026-04-30 20:46 | 41.23592 | -81.90397 | 34020 ft | 407 kts | 298° |
| 2026-04-30 20:47 | 41.28122 | -81.99939 | 34038 ft | 407 kts | 298° |
| 2026-04-30 20:48 | 41.32652 | -82.09512 | 34037 ft | 408 kts | 298° |
| 2026-04-30 20:48 | 41.35385 | -82.16081 | 34010 ft | 401 kts | 284° |
| 2026-04-30 20:49 | 41.36143 | -82.23368 | 34019 ft | 402 kts | 275° |
| 2026-04-30 20:50 | 41.36884 | -82.34483 | 34034 ft | 401 kts | 274° |
| 2026-04-30 20:50 | 41.37322 | -82.41889 | 34033 ft | 402 kts | 274° |
| 2026-04-30 20:51 | 41.37748 | -82.49309 | 34034 ft | 401 kts | 274° |
| 2026-04-30 20:51 | 41.38376 | -82.60376 | 34033 ft | 401 kts | 274° |
| 2026-04-30 20:52 | 41.38790 | -82.67787 | 34029 ft | 401 kts | 274° |
| 2026-04-30 20:53 | 41.39402 | -82.78904 | 34032 ft | 401 kts | 274° |
| 2026-04-30 20:53 | 41.39805 | -82.86316 | 34023 ft | 400 kts | 274° |
| 2026-04-30 20:54 | 41.40399 | -82.97415 | 34026 ft | 400 kts | 274° |
| 2026-04-30 20:55 | 41.40981 | -83.08516 | 34031 ft | 401 kts | 274° |
| 2026-04-30 20:55 | 41.41362 | -83.15881 | 34040 ft | 401 kts | 274° |
| 2026-04-30 20:56 | 41.41927 | -83.26977 | 34035 ft | 399 kts | 274° |
| 2026-04-30 20:57 | 41.42480 | -83.38063 | 34034 ft | 399 kts | 274° |
| 2026-04-30 20:57 | 41.42843 | -83.45459 | 34036 ft | 400 kts | 274° |
| 2026-04-30 20:58 | 41.43377 | -83.56503 | 34035 ft | 398 kts | 274° |
| 2026-04-30 20:58 | 41.43726 | -83.63847 | 34031 ft | 396 kts | 274° |
| 2026-04-30 20:59 | 41.44240 | -83.74846 | 34031 ft | 396 kts | 274° |
| 2026-04-30 21:00 | 41.44575 | -83.82146 | 32737 ft | 399 kts | 273° |
| 2026-04-30 21:00 | 41.44912 | -83.89601 | 33957 ft | 400 kts | 274° |
| 2026-04-30 21:01 | 41.45401 | -84.00601 | 34034 ft | 394 kts | 274° |
| 2026-04-30 21:02 | 41.45877 | -84.11543 | 34045 ft | 394 kts | 274° |
| 2026-04-30 21:02 | 41.46136 | -84.17610 | 34045 ft | 394 kts | 274° |
| 2026-04-30 21:03 | 41.46445 | -84.24914 | 34050 ft | 394 kts | 274° |
| 2026-04-30 21:03 | 41.46748 | -84.32213 | 34048 ft | 394 kts | 274° |
| 2026-04-30 21:04 | 41.47046 | -84.39510 | 34041 ft | 393 kts | 274° |
| 2026-04-30 21:04 | 41.47484 | -84.50408 | 34040 ft | 394 kts | 274° |
| 2026-04-30 21:05 | 41.47770 | -84.57701 | 34039 ft | 393 kts | 273° |
| 2026-04-30 21:05 | 41.48052 | -84.64988 | 34044 ft | 393 kts | 273° |
| 2026-04-30 21:06 | 41.48330 | -84.72282 | 34047 ft | 393 kts | 273° |
| 2026-04-30 21:06 | 41.48602 | -84.79562 | 34046 ft | 393 kts | 273° |
| 2026-04-30 21:07 | 41.48870 | -84.86848 | 34047 ft | 393 kts | 273° |
| 2026-04-30 21:07 | 41.49133 | -84.94131 | 34045 ft | 393 kts | 273° |
| 2026-04-30 21:08 | 41.49392 | -85.01413 | 34042 ft | 393 kts | 273° |
| 2026-04-30 21:08 | 41.49644 | -85.08652 | 34042 ft | 392 kts | 273° |
| 2026-04-30 21:09 | 41.49893 | -85.15908 | 34041 ft | 391 kts | 273° |
| 2026-04-30 21:09 | 41.50137 | -85.23152 | 34045 ft | 391 kts | 273° |
| 2026-04-30 21:10 | 41.50376 | -85.30394 | 34046 ft | 391 kts | 273° |
| 2026-04-30 21:10 | 41.50610 | -85.37650 | 34055 ft | 391 kts | 273° |
| 2026-04-30 21:11 | 41.50840 | -85.44902 | 34059 ft | 390 kts | 272° |
| 2026-04-30 21:11 | 41.51064 | -85.52076 | 34046 ft | 389 kts | 272° |
| 2026-04-30 21:12 | 41.51283 | -85.59285 | 34040 ft | 389 kts | 272° |
| 2026-04-30 21:12 | 41.51499 | -85.66506 | 34036 ft | 389 kts | 272° |
| 2026-04-30 21:13 | 41.51712 | -85.73721 | 34036 ft | 389 kts | 272° |
| 2026-04-30 21:13 | 41.51920 | -85.80930 | 34036 ft | 389 kts | 272° |
| 2026-04-30 21:14 | 41.52124 | -85.88134 | 34037 ft | 389 kts | 272° |
| 2026-04-30 21:14 | 41.52324 | -85.95342 | 34038 ft | 389 kts | 272° |
| 2026-04-30 21:15 | 41.52512 | -86.02501 | 34044 ft | 389 kts | 272° |
| 2026-04-30 21:15 | 41.52636 | -86.09716 | 34044 ft | 389 kts | 272° |
| 2026-04-30 21:16 | 41.52766 | -86.16930 | 34045 ft | 389 kts | 272° |
| 2026-04-30 21:16 | 41.52894 | -86.24139 | 34047 ft | 389 kts | 271° |
| 2026-04-30 21:17 | 41.53017 | -86.31356 | 34049 ft | 389 kts | 271° |
| 2026-04-30 21:17 | 41.53136 | -86.38574 | 34049 ft | 389 kts | 271° |
| 2026-04-30 21:18 | 41.53251 | -86.45793 | 34051 ft | 389 kts | 271° |
| 2026-04-30 21:18 | 41.53360 | -86.52973 | 34032 ft | 389 kts | 271° |
| 2026-04-30 21:19 | 41.53466 | -86.60200 | 34023 ft | 389 kts | 271° |
| 2026-04-30 21:19 | 41.53567 | -86.67435 | 34024 ft | 390 kts | 271° |
| 2026-04-30 21:20 | 41.53664 | -86.74680 | 34025 ft | 390 kts | 271° |
| 2026-04-30 21:20 | 41.53755 | -86.81879 | 34025 ft | 390 kts | 271° |
| 2026-04-30 21:21 | 41.53843 | -86.89109 | 34031 ft | 390 kts | 271° |
| 2026-04-30 21:22 | 41.53965 | -86.99963 | 34036 ft | 391 kts | 271° |
| 2026-04-30 21:23 | 41.54114 | -87.14478 | 34047 ft | 391 kts | 271° |
| 2026-04-30 21:23 | 41.54213 | -87.25368 | 34038 ft | 391 kts | 271° |
| 2026-04-30 21:24 | 41.54273 | -87.32583 | 34038 ft | 391 kts | 271° |
| 2026-04-30 21:24 | 41.54329 | -87.39877 | 34036 ft | 394 kts | 271° |
| 2026-04-30 21:25 | 41.54405 | -87.50840 | 34043 ft | 393 kts | 271° |
| 2026-04-30 21:26 | 41.54470 | -87.61800 | 34045 ft | 393 kts | 271° |
| 2026-04-30 21:27 | 41.54525 | -87.72758 | 34038 ft | 394 kts | 271° |
| 2026-04-30 21:27 | 41.54556 | -87.80072 | 34047 ft | 394 kts | 271° |
| 2026-04-30 21:28 | 41.54594 | -87.90991 | 34037 ft | 394 kts | 271° |
| 2026-04-30 21:29 | 41.54621 | -88.01966 | 34037 ft | 394 kts | 271° |
| 2026-04-30 21:30 | 41.54646 | -88.20106 | 34043 ft | 389 kts | 271° |
| 2026-04-30 21:31 | 41.54689 | -88.38168 | 34041 ft | 389 kts | 271° |
| 2026-04-30 21:32 | 41.54742 | -88.49007 | 34018 ft | 389 kts | 271° |
| 2026-04-30 21:32 | 41.54771 | -88.56234 | 34036 ft | 388 kts | 271° |
| 2026-04-30 21:33 | 41.54806 | -88.66998 | 34035 ft | 388 kts | 271° |
| 2026-04-30 21:34 | 41.54823 | -88.74207 | 34034 ft | 388 kts | 271° |
| 2026-04-30 21:34 | 41.54842 | -88.85031 | 34048 ft | 388 kts | 271° |
| 2026-04-30 21:35 | 41.54849 | -88.92243 | 34047 ft | 388 kts | 271° |
| 2026-04-30 21:35 | 41.54851 | -88.99461 | 34041 ft | 388 kts | 271° |
| 2026-04-30 21:36 | 41.54849 | -89.06669 | 34044 ft | 388 kts | 271° |
| 2026-04-30 21:37 | 41.54831 | -89.21055 | 34043 ft | 389 kts | 271° |
| 2026-04-30 21:37 | 41.54816 | -89.28265 | 34036 ft | 387 kts | 271° |
| 2026-04-30 21:38 | 41.54796 | -89.35450 | 34044 ft | 387 kts | 271° |
| 2026-04-30 21:38 | 41.54771 | -89.42638 | 34046 ft | 387 kts | 271° |
| 2026-04-30 21:39 | 41.54742 | -89.49818 | 34046 ft | 387 kts | 270° |
| 2026-04-30 21:39 | 41.54709 | -89.56967 | 34047 ft | 387 kts | 270° |
| 2026-04-30 21:40 | 41.54672 | -89.64150 | 34049 ft | 387 kts | 270° |
| 2026-04-30 21:40 | 41.54630 | -89.71340 | 34043 ft | 387 kts | 270° |
| 2026-04-30 21:41 | 41.54583 | -89.78541 | 34046 ft | 387 kts | 270° |
| 2026-04-30 21:41 | 41.54532 | -89.85689 | 34040 ft | 387 kts | 270° |
| 2026-04-30 21:42 | 41.54477 | -89.92879 | 34044 ft | 387 kts | 270° |
| 2026-04-30 21:42 | 41.54417 | -90.00069 | 34038 ft | 387 kts | 270° |
| 2026-04-30 21:43 | 41.54364 | -90.06040 | 34037 ft | 386 kts | 270° |
| 2026-04-30 21:43 | 41.54285 | -90.14379 | 34040 ft | 386 kts | 270° |
| 2026-04-30 21:44 | 41.54212 | -90.21545 | 34036 ft | 386 kts | 270° |
| 2026-04-30 21:44 | 41.54134 | -90.28710 | 34038 ft | 386 kts | 270° |
| 2026-04-30 21:45 | 41.54052 | -90.35883 | 34034 ft | 386 kts | 270° |
| 2026-04-30 21:45 | 41.53966 | -90.43035 | 34035 ft | 385 kts | 270° |
| 2026-04-30 21:46 | 41.53875 | -90.50170 | 34038 ft | 384 kts | 270° |
| 2026-04-30 21:46 | 41.53781 | -90.57296 | 34036 ft | 384 kts | 270° |
| 2026-04-30 21:47 | 41.53681 | -90.64430 | 34036 ft | 384 kts | 270° |
| 2026-04-30 21:47 | 41.53578 | -90.71520 | 34037 ft | 384 kts | 270° |
| 2026-04-30 21:48 | 41.53470 | -90.78643 | 34020 ft | 384 kts | 270° |
| 2026-04-30 21:48 | 41.53358 | -90.85767 | 34032 ft | 383 kts | 270° |
| 2026-04-30 21:49 | 41.53242 | -90.92879 | 34038 ft | 383 kts | 270° |
| 2026-04-30 21:49 | 41.53120 | -91.00006 | 34043 ft | 383 kts | 270° |
| 2026-04-30 21:50 | 41.53016 | -91.05923 | 34039 ft | 383 kts | 270° |
| 2026-04-30 21:50 | 41.52888 | -91.13031 | 34042 ft | 383 kts | 270° |
| 2026-04-30 21:51 | 41.52754 | -91.20148 | 34048 ft | 384 kts | 269° |
| 2026-04-30 21:51 | 41.52616 | -91.27283 | 34057 ft | 384 kts | 269° |
| 2026-04-30 21:52 | 41.52474 | -91.34410 | 34061 ft | 384 kts | 269° |
| 2026-04-30 21:52 | 41.52328 | -91.41496 | 34061 ft | 384 kts | 269° |
| 2026-04-30 21:53 | 41.52179 | -91.48634 | 34063 ft | 384 kts | 269° |
| 2026-04-30 21:53 | 41.52025 | -91.55756 | 34054 ft | 384 kts | 269° |
| 2026-04-30 21:54 | 41.51708 | -91.62869 | 34063 ft | 384 kts | 263° |
| 2026-04-30 21:54 | 41.50996 | -91.69944 | 34060 ft | 385 kts | 264° |
| 2026-04-30 21:55 | 41.50329 | -91.77027 | 34060 ft | 385 kts | 265° |
| 2026-04-30 21:55 | 41.49667 | -91.84116 | 34058 ft | 385 kts | 265° |
| 2026-04-30 21:56 | 41.49008 | -91.91148 | 34048 ft | 385 kts | 264° |
| 2026-04-30 21:56 | 41.48339 | -91.98230 | 34056 ft | 385 kts | 264° |
| 2026-04-30 21:57 | 41.47666 | -92.05316 | 34050 ft | 385 kts | 264° |
| 2026-04-30 21:57 | 41.46988 | -92.12404 | 34050 ft | 385 kts | 264° |
| 2026-04-30 21:58 | 41.46305 | -92.19493 | 34048 ft | 385 kts | 264° |
| 2026-04-30 21:58 | 41.45618 | -92.26584 | 34055 ft | 385 kts | 264° |
| 2026-04-30 21:59 | 41.44926 | -92.33673 | 34048 ft | 386 kts | 264° |
| 2026-04-30 22:00 | 41.43880 | -92.44313 | 34058 ft | 386 kts | 264° |
| 2026-04-30 22:00 | 41.42817 | -92.54901 | 34067 ft | 386 kts | 264° |
| 2026-04-30 22:01 | 41.42096 | -92.61987 | 34069 ft | 386 kts | 264° |
| 2026-04-30 22:01 | 41.41372 | -92.69073 | 34055 ft | 386 kts | 264° |
| 2026-04-30 22:02 | 41.40642 | -92.76163 | 34069 ft | 386 kts | 264° |
| 2026-04-30 22:02 | 41.39909 | -92.83249 | 34082 ft | 386 kts | 264° |
| 2026-04-30 22:03 | 41.39176 | -92.90282 | 34085 ft | 386 kts | 264° |
| 2026-04-30 22:03 | 41.38432 | -92.97376 | 34081 ft | 386 kts | 264° |
| 2026-04-30 22:04 | 41.37685 | -93.04467 | 34081 ft | 386 kts | 264° |
| 2026-04-30 22:05 | 41.36554 | -93.15104 | 34075 ft | 387 kts | 263° |
| 2026-04-30 22:05 | 41.35794 | -93.22204 | 34077 ft | 387 kts | 263° |
| 2026-04-30 22:06 | 41.35030 | -93.29298 | 34075 ft | 387 kts | 263° |
| 2026-04-30 22:06 | 41.33882 | -93.39890 | 34082 ft | 387 kts | 263° |
| 2026-04-30 22:07 | 41.33107 | -93.46979 | 34089 ft | 387 kts | 263° |
| 2026-04-30 22:07 | 41.32328 | -93.54070 | 34088 ft | 387 kts | 263° |
| 2026-04-30 22:08 | 41.31544 | -93.61159 | 34102 ft | 387 kts | 263° |
| 2026-04-30 22:08 | 41.30755 | -93.68251 | 34104 ft | 387 kts | 263° |
| 2026-04-30 22:09 | 41.29967 | -93.75296 | 34092 ft | 387 kts | 263° |
| 2026-04-30 22:09 | 41.29170 | -93.82388 | 34087 ft | 387 kts | 263° |
| 2026-04-30 22:10 | 41.28368 | -93.89472 | 34103 ft | 387 kts | 263° |
| 2026-04-30 22:10 | 41.27567 | -93.96521 | 34098 ft | 383 kts | 263° |
| 2026-04-30 22:11 | 41.26366 | -94.07001 | 34096 ft | 382 kts | 263° |
| 2026-04-30 22:12 | 41.25559 | -94.13993 | 34096 ft | 382 kts | 263° |
| 2026-04-30 22:12 | 41.24755 | -94.20925 | 34075 ft | 382 kts | 263° |
| 2026-04-30 22:13 | 41.23940 | -94.27919 | 34096 ft | 382 kts | 263° |
| 2026-04-30 22:13 | 41.23121 | -94.34908 | 34097 ft | 382 kts | 263° |
| 2026-04-30 22:14 | 41.22299 | -94.41881 | 34096 ft | 382 kts | 263° |
| 2026-04-30 22:14 | 41.21472 | -94.48860 | 34099 ft | 382 kts | 263° |
| 2026-04-30 22:15 | 41.20640 | -94.55837 | 34101 ft | 382 kts | 263° |
| 2026-04-30 22:15 | 41.19809 | -94.62779 | 34100 ft | 383 kts | 263° |
| 2026-04-30 22:16 | 41.18966 | -94.69781 | 34110 ft | 384 kts | 263° |
| 2026-04-30 22:17 | 41.17268 | -94.83774 | 34112 ft | 384 kts | 263° |
| 2026-04-30 22:17 | 41.15984 | -94.94262 | 34111 ft | 384 kts | 263° |
| 2026-04-30 22:18 | 41.14696 | -95.04690 | 34113 ft | 383 kts | 263° |
| 2026-04-30 22:19 | 41.13395 | -95.15149 | 34115 ft | 383 kts | 263° |
| 2026-04-30 22:20 | 41.12084 | -95.25613 | 34122 ft | 383 kts | 262° |
| 2026-04-30 22:20 | 41.10765 | -95.36061 | 34124 ft | 382 kts | 262° |
| 2026-04-30 22:21 | 41.09883 | -95.43002 | 34122 ft | 381 kts | 262° |
| 2026-04-30 22:21 | 41.08997 | -95.49934 | 34116 ft | 381 kts | 262° |
| 2026-04-30 22:22 | 41.08114 | -95.56812 | 34121 ft | 381 kts | 262° |
| 2026-04-30 22:22 | 41.07220 | -95.63749 | 34124 ft | 381 kts | 262° |
| 2026-04-30 22:23 | 41.06322 | -95.70673 | 34129 ft | 381 kts | 262° |
| 2026-04-30 22:23 | 41.05418 | -95.77618 | 34127 ft | 383 kts | 262° |
| 2026-04-30 22:24 | 41.04508 | -95.84572 | 34128 ft | 382 kts | 262° |
| 2026-04-30 22:24 | 41.03596 | -95.91506 | 34129 ft | 382 kts | 262° |
| 2026-04-30 22:25 | 41.02685 | -95.98400 | 34128 ft | 382 kts | 262° |
| 2026-04-30 22:25 | 41.01762 | -96.05350 | 34129 ft | 382 kts | 262° |
| 2026-04-30 22:26 | 41.00371 | -96.15762 | 34132 ft | 383 kts | 262° |
| 2026-04-30 22:27 | 40.99438 | -96.22706 | 34142 ft | 383 kts | 262° |
| 2026-04-30 22:27 | 40.98037 | -96.33069 | 34146 ft | 383 kts | 262° |
| 2026-04-30 22:28 | 40.96622 | -96.43481 | 34147 ft | 383 kts | 262° |
| 2026-04-30 22:29 | 40.94720 | -96.57369 | 34146 ft | 384 kts | 262° |
| 2026-04-30 22:31 | 40.91777 | -96.81363 | 34141 ft | 376 kts | 264° |
| 2026-04-30 22:32 | 40.90139 | -96.98573 | 34149 ft | 377 kts | 264° |
| 2026-04-30 22:33 | 40.88473 | -97.15753 | 34164 ft | 377 kts | 264° |
| 2026-04-30 22:35 | 40.86780 | -97.32948 | 34168 ft | 377 kts | 264° |
| 2026-04-30 22:36 | 40.85065 | -97.50094 | 34150 ft | 377 kts | 264° |
| 2026-04-30 22:37 | 40.83675 | -97.63803 | 34149 ft | 374 kts | 264° |
| 2026-04-30 22:38 | 40.82392 | -97.76309 | 34159 ft | 374 kts | 264° |
| 2026-04-30 22:39 | 40.81336 | -97.86503 | 34153 ft | 374 kts | 264° |
| 2026-04-30 22:40 | 40.79196 | -98.06890 | 34153 ft | 376 kts | 263° |
| 2026-04-30 22:41 | 40.77379 | -98.23937 | 34158 ft | 376 kts | 263° |
| 2026-04-30 22:43 | 40.75166 | -98.44398 | 34167 ft | 374 kts | 263° |
| 2026-04-30 22:44 | 40.73686 | -98.57923 | 34165 ft | 374 kts | 263° |
| 2026-04-30 22:45 | 40.71430 | -98.78256 | 34142 ft | 373 kts | 263° |
| 2026-04-30 22:47 | 40.69144 | -98.98521 | 34137 ft | 373 kts | 263° |
| 2026-04-30 22:48 | 40.67596 | -99.12063 | 34136 ft | 374 kts | 263° |
| 2026-04-30 22:49 | 40.65241 | -99.32402 | 34139 ft | 375 kts | 263° |
| 2026-04-30 22:51 | 40.62840 | -99.52799 | 34155 ft | 376 kts | 262° |
| 2026-04-30 22:52 | 40.61625 | -99.63008 | 34152 ft | 376 kts | 262° |
| 2026-04-30 22:53 | 40.59998 | -99.76550 | 34152 ft | 376 kts | 262° |
| 2026-04-30 22:53 | 40.58763 | -99.86739 | 34146 ft | 376 kts | 262° |
| 2026-04-30 22:55 | 40.56681 | -100.03748 | 34140 ft | 376 kts | 262° |
| 2026-04-30 22:56 | 40.55002 | -100.17300 | 34141 ft | 376 kts | 262° |
| 2026-04-30 22:57 | 40.52871 | -100.34325 | 34150 ft | 378 kts | 262° |
| 2026-04-30 22:58 | 40.51145 | -100.47956 | 34145 ft | 378 kts | 262° |
| 2026-04-30 22:59 | 40.48527 | -100.68385 | 34146 ft | 380 kts | 262° |